Time;durP1;ratioP1;P1;durP2;ratioP2;P2;SDS_P1;SDS_P2;PMS_P1;PMS_P2;Temp;Humidity;BMP_temperature;BMP_pressure;BME280_temperature;BME280_humidity;BME280_pressure;Samples;Min_cycle;Max_cycle;Signal;HPM_P1;HPM_P2
2021/01/13 00:01:37;;;;;;;15.37;1.53;;;5.60;99.90;;;;;;5031362;28;20187;-91
2021/01/13 00:04:05;;;;;;;7.40;2.00;;;5.60;99.90;;;;;;5032542;28;20237;-91
2021/01/13 00:06:33;;;;;;;15.43;2.37;;;5.60;99.90;;;;;;5031537;28;20203;-93
2021/01/13 00:09:00;;;;;;;10.97;2.07;;;5.60;99.90;;;;;;5030458;28;20264;-90
2021/01/13 00:11:26;;;;;;;14.20;2.33;;;5.70;99.90;;;;;;5031055;28;20202;-89
2021/01/13 00:13:53;;;;;;;11.93;2.20;;;5.70;99.90;;;;;;5030739;28;20194;-89
2021/01/13 00:16:19;;;;;;;9.93;2.37;;;5.70;99.90;;;;;;5034305;28;20233;-92
2021/01/13 00:18:47;;;;;;;9.00;2.13;;;5.70;99.90;;;;;;5034778;28;20641;-91
2021/01/13 00:21:15;;;;;;;11.10;1.60;;;5.70;99.90;;;;;;5034735;28;20213;-91
2021/01/13 00:23:45;;;;;;;10.97;1.67;;;5.70;99.90;;;;;;5031246;28;20586;-92
2021/01/13 00:26:18;;;;;;;7.93;2.30;;;5.70;99.90;;;;;;5031242;28;20206;-91
2021/01/13 00:28:44;;;;;;;10.93;2.03;;;5.70;99.90;;;;;;5033496;28;20232;-89
2021/01/13 00:31:13;;;;;;;11.93;2.20;;;5.80;99.90;;;;;;5034227;28;20700;-91
2021/01/13 00:33:40;;;;;;;11.60;2.50;;;5.80;99.90;;;;;;5040944;22;20382;-91
2021/01/13 00:36:07;;;;;;;9.53;2.00;;;5.80;99.90;;;;;;5034382;28;20285;-91
2021/01/13 00:38:34;;;;;;;9.90;1.60;;;5.90;99.90;;;;;;5034156;28;20209;-89
2021/01/13 00:41:00;;;;;;;10.13;1.83;;;5.90;99.90;;;;;;5034190;28;20202;-94
2021/01/13 00:43:27;;;;;;;11.23;1.73;;;5.90;99.90;;;;;;5034490;28;20209;-91
2021/01/13 00:45:53;;;;;;;8.90;2.03;;;5.80;99.90;;;;;;5034745;28;20482;-93
2021/01/13 00:48:19;;;;;;;12.13;2.13;;;5.80;99.90;;;;;;5034492;28;20253;-87
2021/01/13 00:50:46;;;;;;;16.70;2.73;;;5.70;99.90;;;;;;5034251;28;20206;-91
2021/01/13 00:53:12;;;;;;;8.20;1.77;;;5.70;99.90;;;;;;5034183;28;20217;-91
2021/01/13 00:55:42;;;;;;;9.37;2.17;;;5.70;99.90;;;;;;5032580;28;20244;-93
2021/01/13 00:58:09;;;;;;;12.20;1.73;;;5.80;99.90;;;;;;5035691;28;20603;-92
2021/01/13 01:00:35;;;;;;;12.10;1.93;;;5.80;99.90;;;;;;5034549;28;20545;-92
2021/01/13 01:03:01;;;;;;;9.10;1.77;;;5.80;99.90;;;;;;5034720;28;20230;-94
2021/01/13 01:05:28;;;;;;;9.87;2.30;;;5.80;99.90;;;;;;5034361;28;20209;-93
2021/01/13 01:07:54;;;;;;;10.70;1.90;;;5.80;99.90;;;;;;5034548;28;20206;-90
2021/01/13 01:10:27;;;;;;;13.33;2.40;;;5.80;99.90;;;;;;5017377;28;20206;-90
2021/01/13 01:12:54;;;;;;;10.53;2.07;;;5.80;99.90;;;;;;5036106;28;20217;-90
2021/01/13 01:15:20;;;;;;;9.90;1.77;;;5.90;99.90;;;;;;5035751;28;20205;-92
2021/01/13 01:17:46;;;;;;;7.87;1.63;;;5.90;99.90;;;;;;5033302;28;20199;-92
2021/01/13 01:20:14;;;;;;;8.80;1.63;;;5.90;99.90;;;;;;5034039;28;20214;-92
2021/01/13 01:22:50;;;;;;;10.67;1.70;;;5.80;99.90;;;;;;5034113;28;20264;-93
2021/01/13 01:25:16;;;;;;;8.60;1.50;;;5.70;99.90;;;;;;5033845;28;20198;-95
2021/01/13 01:27:42;;;;;;;14.17;2.40;;;5.70;99.90;;;;;;5032982;28;20587;-94
2021/01/13 01:30:12;;;;;;;11.90;2.50;;;5.60;99.90;;;;;;5033982;28;20520;-92
2021/01/13 01:32:39;;;;;;;10.07;1.80;;;5.50;99.90;;;;;;5033124;28;20230;-91
2021/01/13 01:35:06;;;;;;;11.73;2.17;;;5.60;99.90;;;;;;5033975;28;20202;-92
2021/01/13 01:37:35;;;;;;;9.43;1.73;;;5.60;99.90;;;;;;5034207;28;20222;-95
2021/01/13 01:40:03;;;;;;;15.83;2.23;;;5.70;99.90;;;;;;5034431;28;20851;-89
2021/01/13 01:42:29;;;;;;;13.20;2.30;;;5.70;99.90;;;;;;5034862;28;20198;-93
2021/01/13 01:44:55;;;;;;;14.00;2.47;;;5.70;99.90;;;;;;5034204;28;20317;-93
2021/01/13 01:47:59;;;;;;;14.97;2.90;;;5.80;99.90;;;;;;5033447;28;20198;-93
2021/01/13 01:50:28;;;;;;;17.33;2.77;;;5.70;99.90;;;;;;5028180;28;20236;-93
2021/01/13 01:53:03;;;;;;;12.43;2.33;;;5.70;99.90;;;;;;5026813;28;20215;-92
2021/01/13 01:55:35;;;;;;;12.23;1.90;;;5.70;99.90;;;;;;5029648;28;20198;-93
2021/01/13 01:58:06;;;;;;;13.20;2.10;;;5.70;99.90;;;;;;5032321;28;20195;-91
2021/01/13 02:00:33;;;;;;;13.67;1.83;;;5.70;99.90;;;;;;5032829;28;20198;-93
2021/01/13 02:03:11;;;;;;;10.27;2.27;;;5.80;99.90;;;;;;5032507;28;20211;-92
2021/01/13 02:05:37;;;;;;;11.97;1.80;;;6.00;99.90;;;;;;5032908;28;20207;-91
2021/01/13 02:08:04;;;;;;;16.37;2.73;;;6.10;99.90;;;;;;5032603;28;20269;-90
2021/01/13 02:10:30;;;;;;;11.50;2.33;;;6.20;99.90;;;;;;5032258;28;20222;-93
2021/01/13 02:13:07;;;;;;;14.77;2.43;;;6.20;99.90;;;;;;5029110;28;20536;-93
2021/01/13 02:15:34;;;;;;;14.87;2.97;;;6.30;99.90;;;;;;5025913;28;20583;-92
2021/01/13 02:18:04;;;;;;;18.57;2.87;;;6.30;99.90;;;;;;5026168;28;20736;-90
2021/01/13 02:20:32;;;;;;;11.07;2.93;;;6.30;99.90;;;;;;5026152;28;20207;-92
2021/01/13 02:23:04;;;;;;;18.37;2.40;;;6.30;99.90;;;;;;5029181;28;20886;-89
2021/01/13 02:26:17;;;;;;;9.53;2.20;;;6.20;99.90;;;;;;5032286;28;20214;-87
2021/01/13 02:29:04;;;;;;;9.40;2.90;;;6.20;99.90;;;;;;5032202;28;20217;-89
2021/01/13 02:31:42;;;;;;;7.13;1.50;;;6.20;99.90;;;;;;5031334;28;20200;-88
2021/01/13 02:34:24;;;;;;;8.50;2.43;;;6.10;99.90;;;;;;5032870;28;20194;-92
2021/01/13 02:37:31;;;;;;;10.53;2.53;;;6.00;99.90;;;;;;5031227;28;20230;-87
2021/01/13 02:39:57;;;;;;;9.33;2.43;;;5.90;99.90;;;;;;5032185;28;20498;-93
2021/01/13 02:42:29;;;;;;;10.77;1.73;;;5.90;99.90;;;;;;5032175;28;20201;-90
2021/01/13 02:45:06;;;;;;;8.10;1.37;;;6.00;99.90;;;;;;5032505;28;20199;-90
2021/01/13 02:47:52;;;;;;;9.80;2.03;;;6.00;99.90;;;;;;5031807;28;20233;-90
2021/01/13 02:50:23;;;;;;;11.50;2.60;;;5.90;99.90;;;;;;5031352;28;20218;-92
2021/01/13 02:53:20;;;;;;;13.03;2.03;;;5.90;99.90;;;;;;5031441;28;20206;-89
2021/01/13 02:56:04;;;;;;;9.03;2.00;;;5.90;99.90;;;;;;4991856;28;20230;-92
2021/01/13 02:58:35;;;;;;;8.73;2.40;;;5.80;99.90;;;;;;5031616;28;20611;-90
2021/01/13 03:01:04;;;;;;;8.23;1.93;;;5.80;99.90;;;;;;5030919;28;20570;-84
2021/01/13 03:03:33;;;;;;;8.97;2.13;;;5.80;99.90;;;;;;5029725;28;20234;-87
2021/01/13 03:06:04;;;;;;;12.90;2.30;;;5.70;99.90;;;;;;5030616;28;20199;-90
2021/01/13 03:08:46;;;;;;;11.40;2.80;;;5.60;99.90;;;;;;5029991;28;20210;-84
2021/01/13 03:11:20;;;;;;;12.30;2.30;;;5.60;99.90;;;;;;5029917;28;20214;-81
2021/01/13 03:13:47;;;;;;;10.77;2.10;;;5.40;99.90;;;;;;5028882;28;20202;-89
2021/01/13 03:16:15;;;;;;;13.13;2.73;;;5.40;99.90;;;;;;5031103;28;20253;-86
2021/01/13 03:18:54;;;;;;;11.43;3.03;;;5.30;99.90;;;;;;5030383;28;20206;-85
2021/01/13 03:21:26;;;;;;;10.03;2.90;;;5.30;99.90;;;;;;5030362;28;20206;-89
2021/01/13 03:23:58;;;;;;;15.93;3.07;;;5.40;99.90;;;;;;5031070;28;20207;-89
2021/01/13 03:26:31;;;;;;;17.80;3.27;;;5.50;99.90;;;;;;5030506;28;20232;-86
2021/01/13 03:28:58;;;;;;;17.13;3.03;;;5.60;99.90;;;;;;5030006;28;20206;-86
2021/01/13 03:31:29;;;;;;;18.43;2.97;;;5.60;99.90;;;;;;5030722;28;20203;-86
2021/01/13 03:34:18;;;;;;;13.90;3.07;;;5.70;99.90;;;;;;5029946;28;20251;-91
2021/01/13 03:37:03;;;;;;;14.87;3.93;;;5.80;99.90;;;;;;5025563;28;20241;-89
2021/01/13 03:39:34;;;;;;;14.33;2.80;;;5.80;99.90;;;;;;5024139;28;20202;-90
2021/01/13 03:42:12;;;;;;;11.53;2.30;;;5.80;99.90;;;;;;5026266;28;20230;-92
2021/01/13 03:44:40;;;;;;;10.07;2.23;;;5.90;99.90;;;;;;5030547;28;20211;-88
2021/01/13 03:47:53;;;;;;;8.97;2.03;;;5.90;99.90;;;;;;5031016;28;20298;-90
2021/01/13 03:50:24;;;;;;;10.03;2.00;;;5.90;99.90;;;;;;5031345;28;20206;-89
2021/01/13 03:52:56;;;;;;;16.23;2.57;;;5.90;99.90;;;;;;5030957;28;20278;-88
2021/01/13 03:55:24;;;;;;;8.30;1.93;;;5.90;99.90;;;;;;5030708;28;20198;-91
2021/01/13 03:58:13;;;;;;;9.63;2.53;;;6.00;99.90;;;;;;5030403;28;20280;-87
2021/01/13 04:00:47;;;;;;;7.93;2.10;;;5.90;99.90;;;;;;5025491;28;20202;-88
2021/01/13 04:03:25;;;;;;;8.60;2.10;;;6.00;99.90;;;;;;5024006;28;20237;-91
2021/01/13 04:06:03;;;;;;;12.57;3.70;;;5.90;99.90;;;;;;5023996;28;20233;-91
2021/01/13 04:08:37;;;;;;;12.73;2.67;;;5.90;99.90;;;;;;5023835;28;20206;-88
2021/01/13 04:11:11;;;;;;;13.47;2.47;;;6.00;99.90;;;;;;5023272;28;20281;-93
2021/01/13 04:13:43;;;;;;;6.53;1.67;;;6.00;99.90;;;;;;5030441;28;20201;-85
2021/01/13 04:16:11;;;;;;;9.13;1.83;;;6.00;99.90;;;;;;5030648;28;20229;-87
2021/01/13 04:18:40;;;;;;;10.50;2.40;;;6.00;99.90;;;;;;5030303;28;20210;-88
2021/01/13 04:21:08;;;;;;;11.10;1.87;;;6.00;99.90;;;;;;5030218;28;20206;-88
2021/01/13 04:23:35;;;;;;;7.93;1.93;;;6.00;99.90;;;;;;5029743;28;20197;-89
2021/01/13 04:26:02;;;;;;;13.77;2.17;;;6.00;99.90;;;;;;5030729;28;20252;-87
2021/01/13 04:28:29;;;;;;;13.77;3.07;;;6.00;99.90;;;;;;5030082;28;20923;-88
2021/01/13 04:30:56;;;;;;;11.23;1.93;;;6.00;99.90;;;;;;5029995;28;20210;-88
2021/01/13 04:33:23;;;;;;;11.13;2.10;;;5.90;99.90;;;;;;5030527;28;20238;-89
2021/01/13 04:35:52;;;;;;;9.47;2.13;;;5.90;99.90;;;;;;5029933;28;20202;-87
2021/01/13 04:38:22;;;;;;;15.00;2.70;;;5.90;99.90;;;;;;5029975;28;20209;-87
2021/01/13 04:41:04;;;;;;;12.90;2.63;;;5.90;99.90;;;;;;5029871;28;20202;-90
2021/01/13 04:43:51;;;;;;;13.00;1.87;;;5.80;99.90;;;;;;5029979;28;20238;-87
2021/01/13 04:46:35;;;;;;;9.37;2.13;;;5.80;99.90;;;;;;5029330;28;20203;-87
2021/01/13 04:49:08;;;;;;;11.43;2.20;;;5.80;99.90;;;;;;5030490;28;20268;-88
2021/01/13 04:51:37;;;;;;;9.77;2.30;;;5.80;99.90;;;;;;5029667;28;20195;-87
2021/01/13 04:54:07;;;;;;;11.33;2.77;;;5.80;99.90;;;;;;5029100;28;20245;-84
2021/01/13 04:56:43;;;;;;;7.17;2.50;;;5.70;99.90;;;;;;5029765;28;20222;-88
2021/01/13 04:59:56;;;;;;;11.47;2.87;;;5.70;99.90;;;;;;5030095;28;20201;-87
2021/01/13 05:03:05;;;;;;;13.37;2.90;;;5.70;99.90;;;;;;5006985;28;20475;-88
2021/01/13 05:05:32;;;;;;;12.03;2.80;;;5.70;99.90;;;;;;5033044;28;20197;-86
2021/01/13 05:08:25;;;;;;;9.47;1.70;;;5.60;99.90;;;;;;5034389;28;20195;-88
2021/01/13 05:10:58;;;;;;;8.40;1.30;;;5.60;99.90;;;;;;5031724;28;20265;-87
2021/01/13 05:13:25;;;;;;;12.37;2.10;;;5.60;99.90;;;;;;5027234;28;20199;-87
2021/01/13 05:15:55;;;;;;;9.47;1.80;;;5.70;99.90;;;;;;5014480;28;20199;-88
2021/01/13 05:18:51;;;;;;;10.03;1.93;;;5.60;99.90;;;;;;5014147;28;20302;-89
2021/01/13 05:21:19;;;;;;;9.77;2.30;;;5.60;99.90;;;;;;5015946;28;20195;-88
2021/01/13 05:23:49;;;;;;;9.77;1.83;;;5.60;99.90;;;;;;5015210;28;20228;-87
2021/01/13 05:26:18;;;;;;;8.27;1.60;;;5.60;99.90;;;;;;5015196;28;20227;-88
2021/01/13 05:29:16;;;;;;;15.70;2.37;;;5.70;99.90;;;;;;5012352;28;20199;-90
2021/01/13 05:31:45;;;;;;;14.43;3.10;;;5.70;99.90;;;;;;5011803;28;20869;-90
2021/01/13 05:34:17;;;;;;;6.73;1.60;;;5.70;99.90;;;;;;5016416;28;20381;-86
2021/01/13 05:36:56;;;;;;;6.80;2.10;;;5.70;99.90;;;;;;5012793;28;20698;-90
2021/01/13 05:39:26;;;;;;;13.37;2.47;;;5.70;99.90;;;;;;5013585;28;20496;-88
2021/01/13 05:41:53;;;;;;;13.37;2.03;;;5.70;99.90;;;;;;5013583;28;20195;-90
2021/01/13 05:44:26;;;;;;;7.10;1.60;;;5.70;99.90;;;;;;5013180;28;20214;-85
2021/01/13 05:47:01;;;;;;;12.67;2.43;;;5.70;99.90;;;;;;5013134;28;20203;-91
2021/01/13 05:49:28;;;;;;;12.23;2.07;;;5.70;99.90;;;;;;5012956;28;20218;-90
2021/01/13 05:51:55;;;;;;;7.50;1.60;;;5.70;99.90;;;;;;5013058;28;20207;-90
2021/01/13 05:54:21;;;;;;;11.47;1.87;;;5.70;99.90;;;;;;5013377;28;20207;-84
2021/01/13 05:56:55;;;;;;;14.23;2.33;;;5.70;99.90;;;;;;5012492;28;20227;-88
2021/01/13 05:59:28;;;;;;;12.03;1.90;;;5.70;99.90;;;;;;5012538;28;20196;-88
2021/01/13 06:01:58;;;;;;;13.83;3.60;;;5.70;99.90;;;;;;5012320;28;20587;-89
2021/01/13 06:04:25;;;;;;;6.03;1.87;;;5.70;99.90;;;;;;5012600;28;20214;-90
2021/01/13 06:06:58;;;;;;;9.67;2.80;;;5.60;99.90;;;;;;5012709;28;20203;-87
2021/01/13 06:09:26;;;;;;;8.77;1.70;;;5.70;99.90;;;;;;5012530;28;20239;-88
2021/01/13 06:11:54;;;;;;;17.40;2.20;;;5.70;99.90;;;;;;5011457;28;20222;-89
2021/01/13 06:14:25;;;;;;;9.60;2.00;;;5.70;99.90;;;;;;5012444;28;20211;-90
2021/01/13 06:16:52;;;;;;;8.30;2.47;;;5.70;99.90;;;;;;5020727;28;20211;-89
2021/01/13 06:19:20;;;;;;;8.90;1.97;;;5.60;99.90;;;;;;5032437;28;20202;-85
2021/01/13 06:21:47;;;;;;;15.07;2.00;;;5.70;99.90;;;;;;5031802;28;20564;-87
2021/01/13 06:24:14;;;;;;;14.33;2.07;;;5.60;99.90;;;;;;5032404;28;20664;-88
2021/01/13 06:27:02;;;;;;;7.90;1.73;;;5.70;99.90;;;;;;5031485;28;20596;-89
2021/01/13 06:29:41;;;;;;;10.03;1.80;;;5.70;99.90;;;;;;5031988;28;20178;-87
2021/01/13 06:32:17;;;;;;;8.80;1.83;;;5.70;99.90;;;;;;5031445;28;20219;-89
2021/01/13 06:34:58;;;;;;;8.27;2.40;;;5.60;99.90;;;;;;5030956;28;20226;-88
2021/01/13 06:37:45;;;;;;;13.03;2.03;;;5.70;99.90;;;;;;5032011;28;20215;-88
2021/01/13 06:40:13;;;;;;;15.27;1.90;;;5.70;99.90;;;;;;5031910;28;20202;-84
2021/01/13 06:42:41;;;;;;;7.80;2.60;;;5.70;99.90;;;;;;5032333;28;20230;-92
2021/01/13 06:45:09;;;;;;;9.70;2.20;;;5.60;99.90;;;;;;5031322;28;20210;-90
2021/01/13 06:47:35;;;;;;;12.27;1.83;;;5.60;99.90;;;;;;5031498;28;20219;-90
2021/01/13 06:50:03;;;;;;;12.07;2.60;;;5.60;99.90;;;;;;5032393;28;20241;-87
2021/01/13 06:52:31;;;;;;;8.13;2.20;;;5.60;99.90;;;;;;5031379;28;20202;-90
2021/01/13 06:55:01;;;;;;;7.97;2.00;;;5.60;99.90;;;;;;5031394;28;20797;-89
2021/01/13 06:57:28;;;;;;;10.47;2.70;;;5.70;99.90;;;;;;5031804;28;20300;-84
2021/01/13 06:59:56;;;;;;;12.50;2.60;;;5.70;99.90;;;;;;5031478;28;20199;-81
2021/01/13 07:02:33;;;;;;;11.93;1.80;;;5.70;99.90;;;;;;5031942;28;20195;-95
2021/01/13 07:05:00;;;;;;;10.23;2.30;;;5.70;99.90;;;;;;5031683;28;20711;-89
2021/01/13 07:07:27;;;;;;;7.80;2.40;;;5.70;99.90;;;;;;5030600;28;20261;-89
2021/01/13 07:09:53;;;;;;;24.83;3.00;;;5.70;99.90;;;;;;5031375;28;20206;-90
2021/01/13 07:12:21;;;;;;;7.83;2.03;;;5.70;99.90;;;;;;5031386;28;20201;-90
2021/01/13 07:14:49;;;;;;;13.97;2.77;;;5.70;99.90;;;;;;5032184;28;20517;-90
2021/01/13 07:17:18;;;;;;;12.33;2.57;;;5.70;99.90;;;;;;5032331;28;20230;-91
2021/01/13 07:19:46;;;;;;;9.33;2.80;;;5.60;99.90;;;;;;5031992;28;20206;-90
2021/01/13 07:22:14;;;;;;;9.90;1.70;;;5.70;99.90;;;;;;5032221;28;20206;-89
2021/01/13 07:24:42;;;;;;;5.77;1.53;;;5.60;99.90;;;;;;5031456;28;20594;-88
2021/01/13 07:27:09;;;;;;;5.23;2.30;;;5.70;99.90;;;;;;5032437;28;20207;-90
2021/01/13 07:29:36;;;;;;;12.73;2.70;;;5.60;99.90;;;;;;5032742;28;20202;-90
2021/01/13 07:32:04;;;;;;;11.33;2.77;;;5.60;99.90;;;;;;5032690;28;20198;-92
2021/01/13 07:34:36;;;;;;;7.13;1.83;;;5.60;99.90;;;;;;5031649;28;20203;-90
2021/01/13 07:37:06;;;;;;;6.77;2.03;;;5.60;99.90;;;;;;5031456;28;20237;-91
2021/01/13 07:40:15;;;;;;;10.10;2.43;;;5.70;99.90;;;;;;5032057;28;20202;-91
2021/01/13 07:42:43;;;;;;;11.60;2.00;;;5.70;99.90;;;;;;5030902;28;20234;-90
2021/01/13 07:45:12;;;;;;;10.93;2.73;;;5.70;99.90;;;;;;5029905;28;20298;-90
2021/01/13 07:48:25;;;;;;;9.40;2.23;;;5.70;99.90;;;;;;5030144;28;20641;-92
2021/01/13 07:50:59;;;;;;;11.47;3.73;;;5.80;99.90;;;;;;5030946;28;20237;-89
2021/01/13 07:53:27;;;;;;;12.47;2.20;;;5.80;99.90;;;;;;5029992;28;20189;-89
2021/01/13 07:55:59;;;;;;;9.37;2.00;;;5.70;99.90;;;;;;5034609;28;20225;-90
2021/01/13 07:58:30;;;;;;;11.23;2.30;;;5.70;99.90;;;;;;5031929;28;20198;-87
2021/01/13 08:01:39;;;;;;;7.27;2.03;;;5.70;99.90;;;;;;5028883;28;20614;-88
2021/01/13 08:04:59;;;;;;;7.10;2.43;;;5.80;99.90;;;;;;5025399;28;20210;-89
2021/01/13 08:07:37;;;;;;;14.97;2.50;;;5.80;99.90;;;;;;4963200;28;20271;-89
2021/01/13 08:10:06;;;;;;;6.40;2.40;;;5.80;99.90;;;;;;5027352;28;20241;-88
2021/01/13 08:13:14;;;;;;;6.53;1.77;;;5.80;99.90;;;;;;5025032;28;20813;-88
2021/01/13 08:16:24;;;;;;;12.40;2.00;;;5.80;99.90;;;;;;5026410;28;20210;-91
2021/01/13 08:19:51;;;;;;;10.70;2.10;;;5.80;99.90;;;;;;5028758;28;20202;-83
2021/01/13 08:22:24;;;;;;;8.77;2.03;;;5.80;99.90;;;;;;5028460;28;20217;-86
2021/01/13 08:24:59;;;;;;;11.00;2.40;;;5.80;99.90;;;;;;5029046;28;20199;-87
2021/01/13 08:27:27;;;;;;;8.57;1.93;;;5.90;99.90;;;;;;5029138;28;20209;-84
2021/01/13 08:29:56;;;;;;;10.10;2.27;;;5.90;99.90;;;;;;5029794;28;20198;-87
2021/01/13 08:32:30;;;;;;;9.00;1.90;;;5.90;99.90;;;;;;5029719;28;20295;-88
2021/01/13 08:35:04;;;;;;;11.53;2.70;;;6.00;99.90;;;;;;5030482;28;20244;-87
2021/01/13 08:55:15;;;;;;;9.37;2.07;;;6.10;99.90;;;;;;4928927;29;20198;-82
2021/01/13 08:57:53;;;;;;;8.50;2.20;;;6.10;99.90;;;;;;4933385;28;20304;-84
2021/01/13 09:00:21;;;;;;;9.03;1.80;;;6.10;99.90;;;;;;4972247;28;20247;-84
2021/01/13 09:03:02;;;;;;;12.07;2.10;;;6.10;99.90;;;;;;4971717;28;20209;-86
2021/01/13 09:05:29;;;;;;;14.27;3.27;;;6.10;99.90;;;;;;4972054;28;20813;-84
2021/01/13 09:07:58;;;;;;;8.00;1.97;;;6.20;99.90;;;;;;4971119;28;20331;-85
2021/01/13 09:10:48;;;;;;;8.90;1.97;;;6.20;99.90;;;;;;4955865;28;20205;-85
2021/01/13 09:13:31;;;;;;;11.60;3.23;;;6.20;99.90;;;;;;4971842;28;20347;-83
2021/01/13 09:15:59;;;;;;;8.50;1.90;;;6.30;99.90;;;;;;4972565;28;20209;-84
2021/01/13 09:18:29;;;;;;;13.50;2.80;;;6.30;99.90;;;;;;4992345;28;20234;-88
2021/01/13 09:20:57;;;;;;;10.43;2.67;;;6.30;99.90;;;;;;5032894;28;20574;-83
2021/01/13 09:23:23;;;;;;;9.93;1.97;;;6.30;99.90;;;;;;5031975;28;20240;-85
2021/01/13 09:25:56;;;;;;;11.60;2.40;;;6.30;99.90;;;;;;5032043;28;20203;-82
2021/01/13 09:28:23;;;;;;;7.53;1.93;;;6.30;99.90;;;;;;5032277;28;20198;-85
2021/01/13 09:30:49;;;;;;;9.43;2.60;;;6.30;99.90;;;;;;5031934;28;20210;-83
2021/01/13 09:33:17;;;;;;;7.37;1.83;;;6.30;99.90;;;;;;5031568;28;20238;-90
2021/01/13 09:35:46;;;;;;;9.23;2.47;;;6.30;99.90;;;;;;5031781;28;20650;-81
2021/01/13 09:38:13;;;;;;;7.77;2.20;;;6.20;99.90;;;;;;5031392;28;20230;-84
2021/01/13 09:40:55;;;;;;;7.87;2.07;;;6.30;99.90;;;;;;5031447;28;20206;-82
2021/01/13 09:43:27;;;;;;;8.83;2.13;;;6.30;99.90;;;;;;5032445;28;20203;-87
2021/01/13 09:45:54;;;;;;;13.07;2.20;;;6.30;99.90;;;;;;5031101;28;20226;-82
2021/01/13 09:48:21;;;;;;;9.23;2.20;;;6.30;99.90;;;;;;5025956;28;20221;-83
2021/01/13 09:51:08;;;;;;;9.97;1.90;;;6.40;99.90;;;;;;5031617;28;20758;-80
2021/01/13 09:53:38;;;;;;;9.80;2.33;;;6.50;99.90;;;;;;5029968;28;20221;-80
2021/01/13 09:56:08;;;;;;;8.03;2.37;;;6.50;99.90;;;;;;5029843;28;20202;-79
2021/01/13 09:58:40;;;;;;;7.83;2.17;;;6.60;99.90;;;;;;5029422;28;20252;-81
2021/01/13 10:01:10;;;;;;;10.60;2.10;;;6.60;99.90;;;;;;5026725;28;20830;-82
2021/01/13 10:03:37;;;;;;;12.33;2.03;;;6.70;99.90;;;;;;5030282;28;20253;-79
2021/01/13 10:06:12;;;;;;;8.07;1.83;;;6.70;99.90;;;;;;5029009;28;20210;-83
2021/01/13 10:08:39;;;;;;;9.67;2.10;;;6.70;99.90;;;;;;5027365;28;20575;-80
2021/01/13 10:11:08;;;;;;;7.27;1.73;;;6.70;99.90;;;;;;5028361;28;20199;-84
2021/01/13 10:13:36;;;;;;;12.90;3.07;;;6.70;99.90;;;;;;5029040;28;20606;-85
2021/01/13 10:16:04;;;;;;;8.00;2.10;;;6.60;99.90;;;;;;5030088;28;20587;-83
2021/01/13 10:18:31;;;;;;;9.03;1.87;;;6.60;99.90;;;;;;5030478;28;20227;-84
2021/01/13 10:20:58;;;;;;;21.83;3.27;;;6.50;99.90;;;;;;5030603;28;20205;-85
2021/01/13 10:23:29;;;;;;;10.97;2.53;;;6.50;99.90;;;;;;5030267;28;20203;-82
2021/01/13 10:26:08;;;;;;;13.00;2.20;;;6.50;99.90;;;;;;5029358;28;20214;-81
2021/01/13 10:28:36;;;;;;;5.27;1.67;;;6.60;99.90;;;;;;5028320;28;20198;-86
2021/01/13 10:31:03;;;;;;;5.43;1.60;;;6.70;99.90;;;;;;5030023;28;20213;-88
2021/01/13 10:33:53;;;;;;;11.27;2.80;;;6.70;99.90;;;;;;5029408;28;20246;-86
2021/01/13 10:36:38;;;;;;;9.73;2.37;;;6.70;99.90;;;;;;5029595;28;20199;-91
2021/01/13 10:39:08;;;;;;;10.27;2.43;;;6.60;99.90;;;;;;5029811;28;20202;-84
2021/01/13 10:41:37;;;;;;;7.47;2.40;;;6.70;99.90;;;;;;5029443;28;20213;-88
2021/01/13 10:44:07;;;;;;;9.67;2.03;;;6.70;99.90;;;;;;5028279;28;20536;-84
2021/01/13 10:46:52;;;;;;;12.77;2.13;;;6.70;99.90;;;;;;5029903;28;20248;-89
2021/01/13 10:49:22;;;;;;;8.90;1.80;;;6.70;99.90;;;;;;5029719;28;20276;-93
2021/01/13 10:51:50;;;;;;;10.43;2.30;;;6.70;99.90;;;;;;5030108;28;20202;-91
2021/01/13 10:54:19;;;;;;;9.10;2.60;;;6.70;99.90;;;;;;5032777;28;20202;-89
2021/01/13 10:56:48;;;;;;;8.80;1.90;;;6.70;99.90;;;;;;5028573;28;21042;-90
2021/01/13 10:59:16;;;;;;;10.50;1.80;;;6.70;99.90;;;;;;5028591;28;20904;-85
2021/01/13 11:01:47;;;;;;;5.83;1.80;;;6.80;99.90;;;;;;5028539;28;20559;-84
2021/01/13 11:04:38;;;;;;;8.67;2.03;;;6.90;99.90;;;;;;5028403;28;20858;-85
2021/01/13 11:07:15;;;;;;;9.30;2.30;;;7.00;99.90;;;;;;5029152;28;20199;-90
2021/01/13 11:09:43;;;;;;;5.87;1.83;;;7.00;99.90;;;;;;5027763;28;20195;-83
2021/01/13 11:12:17;;;;;;;7.97;2.40;;;7.10;99.90;;;;;;5028343;28;20198;-89
2021/01/13 11:14:46;;;;;;;12.30;2.20;;;7.10;99.90;;;;;;5009550;28;20207;-82
2021/01/13 11:17:15;;;;;;;7.70;2.40;;;7.10;99.90;;;;;;5008637;28;20223;-83
2021/01/13 11:19:44;;;;;;;16.37;3.27;;;7.20;99.90;;;;;;5007932;28;20207;-86
2021/01/13 11:22:10;;;;;;;14.83;2.27;;;7.20;99.90;;;;;;5008564;28;20195;-85
2021/01/13 11:24:40;;;;;;;13.40;3.13;;;7.30;99.90;;;;;;5010251;28;20199;-86
2021/01/13 11:27:11;;;;;;;14.67;3.00;;;7.30;99.90;;;;;;5026900;28;20206;-81
2021/01/13 11:29:39;;;;;;;10.23;3.27;;;7.40;99.90;;;;;;5026374;28;20202;-88
2021/01/13 11:32:07;;;;;;;11.53;2.67;;;7.40;99.90;;;;;;5027081;28;20207;-85
2021/01/13 11:34:34;;;;;;;10.03;3.10;;;7.40;99.90;;;;;;5007992;28;20882;-81
2021/01/13 11:37:21;;;;;;;10.27;3.03;;;7.50;99.90;;;;;;5007868;28;20536;-88
2021/01/13 11:40:02;;;;;;;10.23;2.33;;;7.60;99.90;;;;;;5005686;28;21018;-81
2021/01/13 11:43:13;;;;;;;10.87;2.93;;;7.50;99.90;;;;;;5006371;28;20203;-84
2021/01/13 11:45:54;;;;;;;11.10;2.37;;;7.50;99.90;;;;;;5008033;28;20225;-82
2021/01/13 11:48:28;;;;;;;15.30;3.00;;;7.50;99.90;;;;;;5006934;28;20702;-81
2021/01/13 11:51:00;;;;;;;14.23;3.00;;;7.50;99.90;;;;;;5006683;28;20191;-79
2021/01/13 11:53:28;;;;;;;12.30;2.37;;;7.40;99.90;;;;;;5006596;28;20688;-81
2021/01/13 11:55:55;;;;;;;13.03;2.77;;;7.40;99.90;;;;;;5007276;28;20253;-81
2021/01/13 11:58:22;;;;;;;10.43;2.37;;;7.40;99.90;;;;;;5005802;28;20230;-81
2021/01/13 12:00:49;;;;;;;11.97;2.40;;;7.40;99.90;;;;;;5006279;28;20608;-84
2021/01/13 12:03:19;;;;;;;7.40;2.30;;;7.40;99.90;;;;;;5007508;28;20225;-81
2021/01/13 12:05:47;;;;;;;8.67;2.37;;;7.40;99.90;;;;;;5007326;28;20289;-85
2021/01/13 12:08:15;;;;;;;11.67;3.93;;;7.40;99.90;;;;;;5006738;28;21004;-83
2021/01/13 12:10:43;;;;;;;9.37;2.07;;;7.50;99.90;;;;;;5009336;28;20282;-90
2021/01/13 12:13:11;;;;;;;14.43;2.47;;;7.50;99.90;;;;;;5005243;28;20196;-81
2021/01/13 12:15:47;;;;;;;10.87;2.60;;;7.50;99.90;;;;;;4990296;28;20596;-81
2021/01/13 12:18:19;;;;;;;6.57;1.90;;;7.50;99.90;;;;;;4988645;28;20238;-88
2021/01/13 12:20:46;;;;;;;10.30;2.57;;;7.50;99.90;;;;;;4990187;28;20207;-85
2021/01/13 12:23:21;;;;;;;7.80;2.40;;;7.50;99.90;;;;;;4988550;28;20218;-85
2021/01/13 12:25:48;;;;;;;10.97;2.50;;;7.40;99.90;;;;;;4992071;28;20191;-88
2021/01/13 12:28:14;;;;;;;10.40;2.73;;;7.40;99.90;;;;;;4992379;28;20199;-88
2021/01/13 12:30:58;;;;;;;13.43;2.50;;;7.40;99.90;;;;;;4992325;28;20199;-79
2021/01/13 12:33:25;;;;;;;8.47;2.23;;;7.40;99.90;;;;;;5002616;28;20239;-84
2021/01/13 12:35:51;;;;;;;6.80;1.90;;;7.40;99.90;;;;;;5011672;28;20207;-84
2021/01/13 12:38:18;;;;;;;7.67;2.17;;;7.50;99.90;;;;;;5011202;28;20260;-77
2021/01/13 12:40:44;;;;;;;6.07;1.90;;;7.50;99.90;;;;;;5013718;28;20199;-81
2021/01/13 12:43:13;;;;;;;10.37;1.90;;;7.40;99.90;;;;;;5010732;28;20191;-81
2021/01/13 12:45:39;;;;;;;13.80;1.93;;;7.40;99.90;;;;;;5006377;28;20211;-82
2021/01/13 12:48:07;;;;;;;4.63;1.50;;;7.30;99.90;;;;;;5005786;28;20226;-82
2021/01/13 12:50:34;;;;;;;5.30;1.80;;;7.30;99.90;;;;;;5008519;28;20555;-82
2021/01/13 12:53:01;;;;;;;8.03;2.00;;;7.30;99.90;;;;;;5010388;28;20207;-83
2021/01/13 12:55:27;;;;;;;5.30;1.60;;;7.40;99.90;;;;;;5008533;28;20218;-83
2021/01/13 12:57:53;;;;;;;4.07;1.50;;;7.40;99.90;;;;;;5010310;28;20275;-84
2021/01/13 13:00:21;;;;;;;9.90;1.77;;;7.40;99.90;;;;;;5020138;28;20210;-82
2021/01/13 13:02:47;;;;;;;9.33;1.93;;;7.50;99.90;;;;;;5030696;28;20260;-80
2021/01/13 13:05:15;;;;;;;5.10;1.90;;;7.40;99.90;;;;;;5029818;28;20260;-78
2021/01/13 13:07:43;;;;;;;6.40;1.50;;;7.40;99.90;;;;;;5028687;28;20222;-80
2021/01/13 13:10:10;;;;;;;8.43;1.90;;;7.50;99.90;;;;;;5028293;28;20210;-82
2021/01/13 13:12:36;;;;;;;12.23;2.23;;;7.40;99.90;;;;;;5027259;28;20313;-82
2021/01/13 13:15:04;;;;;;;9.97;1.83;;;7.40;99.90;;;;;;5028350;28;20208;-82
2021/01/13 13:17:41;;;;;;;11.23;2.10;;;7.40;99.90;;;;;;5026576;28;20292;-81
2021/01/13 13:20:08;;;;;;;7.70;2.07;;;7.30;99.90;;;;;;5028787;28;20203;-83
2021/01/13 13:22:35;;;;;;;7.40;2.13;;;7.30;99.90;;;;;;5027764;28;20288;-79
2021/01/13 13:25:03;;;;;;;13.23;2.57;;;7.40;99.90;;;;;;5028613;28;20210;-81
2021/01/13 13:27:34;;;;;;;5.37;1.53;;;7.40;99.90;;;;;;5028751;28;20442;-81
2021/01/13 13:30:00;;;;;;;9.63;2.10;;;7.40;99.90;;;;;;5026188;28;20206;-83
2021/01/13 13:32:27;;;;;;;6.60;1.63;;;7.40;99.90;;;;;;5025377;28;20203;-80
2021/01/13 13:34:53;;;;;;;11.67;2.27;;;7.40;99.90;;;;;;5026181;28;20241;-80
2021/01/13 13:37:19;;;;;;;9.47;2.07;;;7.30;99.90;;;;;;5025603;28;20227;-84